Time;durP1;ratioP1;P1;durP2;ratioP2;P2;SDS_P1;SDS_P2;PMS_P1;PMS_P2;Temp;Humidity;BMP_temperature;BMP_pressure;BME280_temperature;BME280_humidity;BME280_pressure;Samples;Min_cycle;Max_cycle;Signal;HPM_P1;HPM_P2
2022/05/28 05:01:41;;;;;;;8.68;1.95;;;11.10;89.30;;;;;;6119191;23;20372;31
2022/05/28 05:04:07;;;;;;;10.82;1.80;;;11.20;89.80;;;;;;6108648;23;20018;-78
2022/05/28 05:06:33;;;;;;;8.57;1.70;;;11.30;89.30;;;;;;6134611;23;20042;-79
2022/05/28 05:08:59;;;;;;;7.90;1.70;;;11.40;88.40;;;;;;6133893;23;20028;-79
2022/05/28 05:11:24;;;;;;;8.90;1.58;;;11.40;88.10;;;;;;6109646;23;20013;-79
2022/05/28 05:13:50;;;;;;;7.28;1.70;;;11.50;88.00;;;;;;6135568;23;20070;-79
2022/05/28 05:16:17;;;;;;;10.38;2.17;;;11.60;87.40;;;;;;6085841;23;20313;-78
2022/05/28 05:18:43;;;;;;;9.55;2.03;;;11.60;88.10;;;;;;6135886;23;20018;-78
2022/05/28 05:21:12;;;;;;;12.70;2.20;;;11.70;87.90;;;;;;6136161;23;20295;-80
2022/05/28 05:23:39;;;;;;;16.90;2.67;;;11.70;88.10;;;;;;6135414;23;20018;-79
2022/05/28 05:26:09;;;;;;;11.73;2.72;;;11.70;88.40;;;;;;6136228;23;20030;-79
2022/05/28 05:28:35;;;;;;;6.57;1.70;;;11.70;88.10;;;;;;6135852;23;20009;-78
2022/05/28 05:31:01;;;;;;;9.20;1.80;;;11.70;88.30;;;;;;6134783;23;20234;-79
2022/05/28 05:33:26;;;;;;;8.00;1.70;;;11.70;88.00;;;;;;6135737;23;20069;-79
2022/05/28 05:35:52;;;;;;;7.97;1.60;;;11.80;88.40;;;;;;6135279;23;20094;-79
2022/05/28 05:38:18;;;;;;;8.32;1.60;;;11.90;87.80;;;;;;6135541;23;20057;-79
2022/05/28 05:40:43;;;;;;;5.75;1.52;;;12.00;87.80;;;;;;6109215;23;20062;-79
2022/05/28 05:43:09;;;;;;;13.18;2.47;;;12.00;87.50;;;;;;6135991;23;20025;-79
2022/05/28 05:45:35;;;;;;;8.10;1.73;;;12.10;87.20;;;;;;6135033;23;20120;-81
2022/05/28 05:48:01;;;;;;;6.28;1.50;;;12.20;85.80;;;;;;6135085;23;20002;-79
2022/05/28 05:50:26;;;;;;;10.60;2.10;;;12.10;86.50;;;;;;6110028;23;20181;-80
2022/05/28 05:52:52;;;;;;;7.43;1.70;;;12.20;86.80;;;;;;6134999;23;20069;-79
2022/05/28 05:55:18;;;;;;;9.48;2.10;;;12.20;86.70;;;;;;6086061;23;19997;-79
2022/05/28 05:57:44;;;;;;;6.93;1.80;;;12.30;86.00;;;;;;6109392;23;20002;-80
2022/05/28 06:00:10;;;;;;;10.70;1.83;;;12.30;85.80;;;;;;6134944;23;19997;-80
2022/05/28 06:02:35;;;;;;;12.82;2.38;;;12.30;85.30;;;;;;6121228;23;20061;-79
2022/05/28 06:05:01;;;;;;;6.85;1.67;;;12.30;84.80;;;;;;6085596;23;20196;-78
2022/05/28 06:07:27;;;;;;;8.98;1.83;;;12.40;83.90;;;;;;6134299;23;20288;-78
2022/05/28 06:09:53;;;;;;;7.65;1.90;;;12.50;84.50;;;;;;6109446;23;20009;-79
2022/05/28 06:12:18;;;;;;;8.88;1.50;;;12.60;84.50;;;;;;6135666;23;20013;-78
2022/05/28 06:14:44;;;;;;;8.63;1.77;;;12.60;84.80;;;;;;6134821;23;20057;-79
2022/05/28 06:17:10;;;;;;;8.38;1.88;;;12.70;83.70;;;;;;6134526;23;20018;-80
2022/05/28 06:19:36;;;;;;;12.80;2.05;;;12.80;84.20;;;;;;6134798;23;20002;-78
2022/05/28 06:22:02;;;;;;;9.63;1.50;;;12.90;83.10;;;;;;6134667;23;20009;-78
2022/05/28 06:24:28;;;;;;;6.88;1.23;;;12.90;81.80;;;;;;6133699;23;20006;-79
2022/05/28 06:26:58;;;;;;;6.75;1.27;;;12.90;81.90;;;;;;6134825;23;19993;-79
2022/05/28 06:29:23;;;;;;;7.55;1.10;;;13.10;79.00;;;;;;6135483;23;20069;-80
2022/05/28 06:31:49;;;;;;;5.55;0.80;;;13.20;79.30;;;;;;6133931;23;20018;-78
2022/05/28 06:34:15;;;;;;;3.60;0.90;;;13.20;77.10;;;;;;6135430;23;20283;-78
2022/05/28 06:36:41;;;;;;;5.97;1.17;;;13.20;77.80;;;;;;6135603;23;20327;-78
2022/05/28 06:39:07;;;;;;;6.78;1.50;;;13.20;78.30;;;;;;6135109;23;20069;-80
2022/05/28 06:41:32;;;;;;;5.80;1.10;;;13.30;77.50;;;;;;6134975;23;20057;-78
2022/05/28 06:43:59;;;;;;;6.97;0.80;;;13.20;76.70;;;;;;6133286;23;20077;-80
2022/05/28 06:46:25;;;;;;;6.15;1.15;;;13.20;76.60;;;;;;6134522;23;20018;-78
2022/05/28 06:48:50;;;;;;;6.10;1.17;;;13.30;76.80;;;;;;6134905;23;20013;-78
2022/05/28 06:51:16;;;;;;;4.50;1.08;;;13.40;77.40;;;;;;6134922;23;20013;-79
2022/05/28 06:53:48;;;;;;;8.00;1.20;;;13.50;76.20;;;;;;6135121;23;20002;-79
2022/05/28 06:56:16;;;;;;;6.00;1.23;;;13.60;76.80;;;;;;6133665;23;20006;-79
2022/05/28 06:58:46;;;;;;;4.68;1.13;;;13.70;75.60;;;;;;6135096;23;20279;-78
2022/05/28 07:01:13;;;;;;;4.60;1.10;;;13.70;75.40;;;;;;6107866;23;20033;-78
2022/05/28 07:03:42;;;;;;;4.72;1.15;;;13.80;75.80;;;;;;6161862;23;20010;-78
2022/05/28 07:06:08;;;;;;;6.55;1.13;;;13.90;73.50;;;;;;6163082;23;20006;-80
2022/05/28 07:08:34;;;;;;;6.63;1.73;;;14.00;74.80;;;;;;6164766;23;20013;-81
2022/05/28 07:11:01;;;;;;;6.85;1.30;;;14.00;74.20;;;;;;6137485;23;20009;-79
2022/05/28 07:13:29;;;;;;;5.55;1.02;;;14.10;74.60;;;;;;6164356;23;20002;-80
2022/05/28 07:15:54;;;;;;;7.03;1.10;;;14.20;74.00;;;;;;6163396;23;20113;-78
2022/05/28 07:18:21;;;;;;;5.63;0.95;;;14.20;73.50;;;;;;6166538;23;19993;-79
2022/05/28 07:20:48;;;;;;;6.13;0.95;;;14.30;73.60;;;;;;6171719;23;20012;-76
2022/05/28 07:23:21;;;;;;;6.13;1.05;;;14.30;73.20;;;;;;6181550;23;20013;-77
2022/05/28 07:25:47;;;;;;;5.25;0.90;;;14.20;73.50;;;;;;6181012;23;20298;-81
2022/05/28 07:28:27;;;;;;;4.55;0.85;;;14.30;72.80;;;;;;6141026;23;20001;-77
2022/05/28 07:31:08;;;;;;;8.13;1.25;;;14.30;73.50;;;;;;6162949;23;20013;-78
2022/05/28 07:33:37;;;;;;;3.28;0.80;;;14.40;73.40;;;;;;6164380;23;20032;-77
2022/05/28 07:36:03;;;;;;;;;;;14.50;72.30;;;;;;6114102;23;19989;-78
2022/05/28 07:38:30;;;;;;;4.38;1.00;;;14.50;73.20;;;;;;6164404;23;19924;-77
2022/05/28 07:40:57;;;;;;;5.10;0.90;;;14.70;73.20;;;;;;6163252;23;20317;-78
2022/05/28 07:43:23;;;;;;;6.50;1.23;;;14.80;70.90;;;;;;6138692;23;20013;-76
2022/05/28 07:45:49;;;;;;;3.80;0.90;;;14.90;71.90;;;;;;6162623;23;20314;-75
2022/05/28 07:48:16;;;;;;;5.78;1.10;;;14.90;71.00;;;;;;6164087;23;20010;-77
2022/05/28 07:50:42;;;;;;;7.53;1.17;;;14.90;70.40;;;;;;6163822;23;20005;-78
2022/05/28 07:53:09;;;;;;;3.42;1.00;;;15.00;69.00;;;;;;6163954;23;20001;-76
2022/05/28 07:55:35;;;;;;;3.70;0.82;;;15.10;69.90;;;;;;6164428;23;20013;-78
2022/05/28 07:58:11;;;;;;;7.10;1.05;;;15.00;70.30;;;;;;6163419;23;20002;-78
2022/05/28 08:00:42;;;;;;;4.60;0.73;;;15.20;69.80;;;;;;6163032;23;20188;-78
2022/05/28 08:03:09;;;;;;;5.85;0.77;;;15.40;67.60;;;;;;6137466;23;20220;-78
2022/05/28 08:06:01;;;;;;;4.00;0.77;;;15.50;67.10;;;;;;6113560;23;20009;-78
2022/05/28 08:08:28;;;;;;;4.15;0.52;;;15.50;66.90;;;;;;6163944;23;20002;-77
2022/05/28 08:10:54;;;;;;;5.45;0.80;;;15.70;65.80;;;;;;6163389;23;20006;-78
2022/05/28 08:13:23;;;;;;;6.20;0.80;;;15.80;65.60;;;;;;6164308;23;20008;-78
2022/05/28 08:15:49;;;;;;;;;;;15.80;65.60;;;;;;6137120;23;20013;-77
2022/05/28 08:18:18;;;;;;;3.55;0.82;;;15.90;66.00;;;;;;6113963;23;19916;-77
2022/05/28 08:23:35;;;;;;;6.07;0.93;;;15.70;65.90;;;;;;6138117;23;19900;-77
2022/05/28 08:26:01;;;;;;;7.68;0.95;;;15.80;67.00;;;;;;6162178;23;20302;-77
2022/05/28 08:28:30;;;;;;;2.97;0.70;;;16.20;67.20;;;;;;6113680;23;20052;-77
2022/05/28 08:30:58;;;;;;;4.22;0.60;;;16.50;67.00;;;;;;6137409;23;20300;-77
2022/05/28 08:33:29;;;;;;;3.92;0.88;;;16.70;67.10;;;;;;6162412;23;20009;-78
2022/05/28 08:36:07;;;;;;;4.50;0.98;;;16.90;67.20;;;;;;6162312;23;20024;-77
2022/05/28 08:38:33;;;;;;;;;;;17.10;67.00;;;;;;6114596;23;20001;-76
2022/05/28 08:41:22;;;;;;;4.50;0.90;;;17.40;66.70;;;;;;6137248;23;20213;-79
2022/05/28 08:57:54;;;;;;;3.33;0.73;;;16.40;68.50;;;;;;6169758;23;20297;-79
2022/05/28 09:00:49;;;;;;;3.67;0.93;;;16.90;67.60;;;;;;6205571;23;20009;-79
2022/05/28 09:06:49;;;;;;;5.03;0.90;;;17.90;65.20;;;;;;6222032;23;20000;-79
2022/05/28 09:12:50;;;;;;;6.35;1.27;;;17.50;64.90;;;;;;6225115;23;20006;-78
2022/05/28 09:15:19;;;;;;;3.83;0.80;;;17.30;65.90;;;;;;6197291;23;20182;-78
2022/05/28 09:17:48;;;;;;;4.75;0.77;;;17.50;66.90;;;;;;6225152;23;20004;-78
2022/05/28 09:20:35;;;;;;;8.10;1.60;;;17.80;66.30;;;;;;6198209;23;20047;-79
2022/05/28 09:23:01;;;;;;;7.57;0.98;;;18.20;64.60;;;;;;6225026;23;20007;-77
2022/05/28 09:25:43;;;;;;;5.25;0.80;;;18.50;63.90;;;;;;6225374;23;20001;-78
2022/05/28 09:28:28;;;;;;;4.32;0.90;;;18.70;62.70;;;;;;6198283;23;20016;-77
2022/05/28 09:31:35;;;;;;;4.22;0.70;;;18.90;62.50;;;;;;6172108;23;20015;-78
2022/05/28 09:34:27;;;;;;;3.28;0.95;;;18.80;62.20;;;;;;6224804;23;20008;-78
2022/05/28 09:37:16;;;;;;;3.88;0.75;;;18.90;61.90;;;;;;6173596;23;20011;-79
2022/05/28 11:41:26;;;;;;;4.53;0.60;;;23.80;51.80;;;;;;6180298;23;20049;-79
2022/05/28 11:44:32;;;;;;;2.42;0.73;;;23.50;50.90;;;;;;6224469;23;20000;-78
2022/05/28 11:47:25;;;;;;;5.60;0.73;;;23.50;50.70;;;;;;6223524;23;20025;-79
2022/05/28 11:53:16;;;;;;;4.20;0.73;;;23.20;51.40;;;;;;6224281;23;20011;-80
2022/05/28 11:55:45;;;;;;;6.67;0.70;;;22.70;52.10;;;;;;6224447;23;20008;-79
2022/05/28 11:58:22;;;;;;;2.92;0.57;;;22.70;53.90;;;;;;6197405;23;20282;-77
2022/05/28 12:00:55;;;;;;;2.83;0.70;;;23.50;50.70;;;;;;6223677;23;20012;-77
2022/05/28 12:03:25;;;;;;;3.92;0.60;;;24.20;50.30;;;;;;6167619;23;20028;-79
2022/05/28 12:06:14;;;;;;;4.70;0.70;;;24.70;48.90;;;;;;6193622;23;20283;-79
2022/05/28 12:08:42;;;;;;;2.88;0.70;;;25.60;49.10;;;;;;6143442;23;20005;-79
2022/05/28 12:11:43;;;;;;;5.32;0.82;;;25.90;48.40;;;;;;6167563;23;20001;-79
2022/05/28 12:14:36;;;;;;;2.35;0.50;;;25.60;48.30;;;;;;6137344;23;20009;-78
2022/05/28 12:17:24;;;;;;;3.08;0.70;;;26.00;48.50;;;;;;6192325;23;20121;-79
2022/05/28 12:19:57;;;;;;;4.28;0.70;;;25.50;49.00;;;;;;6143036;23;20009;-77
2022/05/28 12:22:41;;;;;;;3.35;0.63;;;25.30;49.10;;;;;;6193439;23;20480;-78
2022/05/28 12:25:14;;;;;;;7.55;1.05;;;25.10;49.50;;;;;;6193069;23;20005;-79
2022/05/28 12:27:49;;;;;;;4.07;0.85;;;25.70;49.60;;;;;;6193954;23;20004;-77
2022/05/28 12:30:26;;;;;;;3.13;0.55;;;25.60;49.20;;;;;;6166572;23;20005;-78
2022/05/28 12:32:52;;;;;;;4.47;0.80;;;25.80;49.40;;;;;;6194039;23;20004;-78
2022/05/28 12:35:18;;;;;;;5.00;1.48;;;26.70;48.50;;;;;;6193182;23;20183;-79
2022/05/28 12:38:01;;;;;;;3.35;0.60;;;28.00;47.10;;;;;;6193542;23;20021;-78
2022/05/28 12:40:51;;;;;;;3.25;0.60;;;28.70;46.70;;;;;;6193142;23;20068;-78
2022/05/28 12:43:29;;;;;;;4.65;0.68;;;28.40;46.90;;;;;;6143489;23;20190;-79
2022/05/28 12:45:56;;;;;;;3.60;0.60;;;28.30;45.80;;;;;;6168740;23;20013;-80
2022/05/28 12:48:25;;;;;;;4.53;0.70;;;27.70;46.00;;;;;;6169321;23;20322;-76
2022/05/28 12:51:00;;;;;;;5.18;1.27;;;26.50;47.10;;;;;;6195859;23;20008;-79
2022/05/28 12:53:28;;;;;;;3.38;0.65;;;25.30;48.40;;;;;;6195369;23;20001;-77
2022/05/28 12:56:07;;;;;;;3.92;0.93;;;24.60;49.80;;;;;;6169379;23;20001;-76
2022/05/28 12:58:36;;;;;;;4.95;0.77;;;24.80;48.90;;;;;;6169865;23;20013;-78
2022/05/28 13:01:15;;;;;;;4.25;0.73;;;26.20;48.90;;;;;;6194961;23;20020;-78
2022/05/28 13:03:42;;;;;;;3.60;0.90;;;28.40;46.90;;;;;;6195483;23;20005;-78
2022/05/28 13:06:38;;;;;;;4.15;0.95;;;31.00;45.10;;;;;;6194826;23;20061;-78
2022/05/28 13:09:07;;;;;;;4.78;0.70;;;32.80;43.30;;;;;;6190900;23;20016;-76
2022/05/28 13:11:40;;;;;;;3.80;0.80;;;34.40;42.00;;;;;;6195327;23;20016;-78
2022/05/28 13:14:30;;;;;;;3.35;0.77;;;34.90;41.20;;;;;;6194842;23;20283;-78
2022/05/28 13:17:02;;;;;;;3.75;1.00;;;35.90;40.80;;;;;;6195143;23;20013;-77
2022/05/28 13:20:03;;;;;;;2.55;0.60;;;35.90;40.70;;;;;;6195153;23;19997;-80
2022/05/28 13:22:51;;;;;;;3.13;0.65;;;36.70;40.10;;;;;;6195006;23;20005;-79
2022/05/28 13:25:20;;;;;;;2.90;0.60;;;36.00;40.20;;;;;;6194735;23;20005;-79
2022/05/28 13:28:00;;;;;;;3.78;0.75;;;35.90;39.90;;;;;;6195274;23;20001;-78
2022/05/28 13:30:35;;;;;;;2.75;0.40;;;37.00;38.80;;;;;;6168242;23;20009;-78
2022/05/28 13:33:15;;;;;;;5.10;0.88;;;36.60;39.80;;;;;;6195325;23;19997;-78
2022/05/28 13:35:56;;;;;;;3.40;0.60;;;37.30;38.70;;;;;;6195558;23;20031;-78
2022/05/28 13:38:31;;;;;;;4.00;0.70;;;37.50;38.50;;;;;;6168877;23;20012;-78
2022/05/28 13:40:58;;;;;;;2.70;0.70;;;36.20;37.80;;;;;;6195406;23;20363;-78
2022/05/28 13:43:32;;;;;;;3.33;0.70;;;34.40;39.50;;;;;;6194641;23;20008;-78
2022/05/28 13:46:03;;;;;;;4.50;0.90;;;34.90;39.30;;;;;;6194803;23;20009;-78
2022/05/28 13:48:29;;;;;;;4.32;0.73;;;35.40;38.00;;;;;;6194790;23;20005;-78
2022/05/28 13:51:00;;;;;;;4.07;0.63;;;33.80;39.40;;;;;;6195121;23;20308;-78
2022/05/28 13:53:29;;;;;;;3.40;0.68;;;34.20;39.60;;;;;;6195191;23;20291;-78
2022/05/28 13:56:04;;;;;;;2.42;0.40;;;35.00;39.70;;;;;;6168724;23;19997;-79
2022/05/28 13:58:41;;;;;;;3.40;0.85;;;35.10;39.00;;;;;;6194552;23;20001;-78
2022/05/28 14:01:20;;;;;;;3.55;0.82;;;36.30;39.60;;;;;;6194498;23;20060;-79
2022/05/28 14:03:48;;;;;;;2.55;0.60;;;37.20;38.20;;;;;;6195642;23;20012;-78
2022/05/28 14:06:18;;;;;;;3.03;0.52;;;38.70;37.20;;;;;;6194167;23;20350;-79
2022/05/28 14:08:47;;;;;;;1.85;0.40;;;39.30;37.40;;;;;;6194839;23;20005;-79
2022/05/28 14:11:20;;;;;;;5.05;0.90;;;40.10;36.80;;;;;;6194836;23;20163;-80
2022/05/28 14:13:49;;;;;;;4.03;0.95;;;41.10;36.40;;;;;;6169156;23;20009;-79
2022/05/28 14:16:26;;;;;;;1.52;0.40;;;41.10;36.60;;;;;;6193846;23;20203;-78
2022/05/28 14:18:56;;;;;;;2.80;0.50;;;38.70;36.40;;;;;;6195104;23;20005;-78
2022/05/28 14:21:29;;;;;;;3.22;0.57;;;38.00;37.30;;;;;;6194010;23;20005;-77
2022/05/28 14:23:55;;;;;;;2.97;0.60;;;39.20;36.90;;;;;;6194885;23;20048;-77
2022/05/28 14:26:21;;;;;;;2.10;0.50;;;39.50;37.30;;;;;;6143433;23;20024;-78
2022/05/28 14:28:48;;;;;;;3.88;1.10;;;40.40;36.60;;;;;;6194994;23;20001;-77
2022/05/28 14:31:19;;;;;;;3.22;0.65;;;40.30;36.70;;;;;;6193514;23;20009;-76
2022/05/28 14:33:52;;;;;;;3.03;0.82;;;40.50;36.10;;;;;;6168642;23;20283;-77
2022/05/28 14:36:55;;;;;;;4.45;0.60;;;40.70;36.50;;;;;;6168017;23;19997;-77
2022/05/28 14:39:21;;;;;;;2.72;1.00;;;41.10;36.00;;;;;;6170485;23;20321;-77
2022/05/28 14:41:52;;;;;;;4.07;0.77;;;41.40;34.90;;;;;;6195066;23;20005;-77
2022/05/28 14:44:23;;;;;;;3.28;0.88;;;40.20;35.00;;;;;;6168238;23;20310;-78
2022/05/28 14:46:51;;;;;;;2.63;0.50;;;37.50;36.40;;;;;;6194161;23;20307;-78
2022/05/28 14:49:32;;;;;;;5.63;0.88;;;38.10;36.50;;;;;;6168293;23;20061;-76
2022/05/28 14:52:04;;;;;;;3.20;0.70;;;38.90;36.50;;;;;;6194795;23;20008;-78
2022/05/28 14:54:39;;;;;;;2.65;0.60;;;38.50;37.00;;;;;;6194026;23;20179;-77
2022/05/28 14:57:06;;;;;;;2.97;0.60;;;38.00;36.70;;;;;;6194691;23;20223;-76
2022/05/28 14:59:42;;;;;;;4.53;0.70;;;36.70;37.30;;;;;;6194040;23;20063;-79
2022/05/28 15:02:28;;;;;;;2.55;0.63;;;35.50;37.80;;;;;;6193556;23;20075;-79
2022/05/28 15:05:21;;;;;;;3.70;0.70;;;35.70;38.10;;;;;;6194750;23;20061;-80
2022/05/28 15:07:59;;;;;;;2.50;0.70;;;37.20;37.80;;;;;;6168423;23;20035;-77
2022/05/28 15:10:39;;;;;;;2.83;0.73;;;38.10;37.40;;;;;;6166243;23;20020;-76
2022/05/28 15:13:26;;;;;;;2.83;0.68;;;37.60;37.20;;;;;;6167621;23;20029;-76
2022/05/28 15:15:55;;;;;;;3.85;0.70;;;36.90;38.10;;;;;;6193534;23;20166;-77
2022/05/28 15:18:24;;;;;;;2.88;0.75;;;38.00;37.10;;;;;;6193451;23;20228;-77
2022/05/28 15:20:55;;;;;;;2.90;0.65;;;38.10;37.00;;;;;;6194072;23;20227;-78
2022/05/28 15:23:21;;;;;;;2.42;0.60;;;38.90;36.70;;;;;;6193642;23;20001;-78
2022/05/28 15:25:47;;;;;;;2.75;0.68;;;39.20;36.60;;;;;;6194556;23;20000;-78
2022/05/28 15:28:14;;;;;;;3.50;0.68;;;38.50;36.00;;;;;;6194597;23;20031;-78
2022/05/28 15:30:40;;;;;;;2.00;0.37;;;37.70;36.30;;;;;;6193803;23;20096;-79
2022/05/28 15:33:11;;;;;;;2.67;0.60;;;37.60;36.60;;;;;;6194249;23;20004;-79
2022/05/28 15:38:21;;;;;;;2.42;0.60;;;38.20;36.30;;;;;;6193673;23;20008;-78
2022/05/28 15:40:49;;;;;;;4.78;0.70;;;38.10;36.00;;;;;;6179468;23;20029;-77
2022/05/28 15:43:16;;;;;;;2.90;0.52;;;38.70;35.30;;;;;;6163861;23;20207;-78
2022/05/28 15:45:44;;;;;;;3.20;0.43;;;38.70;35.90;;;;;;6163457;23;20053;-77
2022/05/28 15:48:14;;;;;;;3.30;1.00;;;38.20;35.70;;;;;;6164372;23;20492;-80
2022/05/28 15:50:40;;;;;;;3.08;0.43;;;36.40;36.70;;;;;;6138259;23;20006;-78
2022/05/28 15:53:07;;;;;;;3.95;1.00;;;36.20;37.20;;;;;;6164608;23;20009;-78
2022/05/28 15:55:37;;;;;;;3.65;0.63;;;36.00;36.80;;;;;;6163901;23;20048;-78
2022/05/28 15:58:29;;;;;;;4.15;0.80;;;36.80;36.90;;;;;;6164728;23;20004;-79
2022/05/28 16:00:57;;;;;;;1.63;0.30;;;37.00;36.60;;;;;;6147891;23;20018;-79
2022/05/28 16:03:23;;;;;;;2.05;0.40;;;36.80;36.50;;;;;;6163816;23;20191;-79
2022/05/28 16:05:55;;;;;;;2.90;0.88;;;37.10;36.50;;;;;;6164008;23;19998;-79
2022/05/28 16:10:57;;;;;;;3.40;0.80;;;37.70;35.80;;;;;;6164258;23;20002;-78
2022/05/28 16:13:24;;;;;;;3.53;0.60;;;37.90;36.00;;;;;;6163832;23;20021;-77
2022/05/28 16:15:51;;;;;;;2.20;0.50;;;37.60;36.10;;;;;;6163379;23;20397;-78
2022/05/28 16:18:19;;;;;;;2.40;0.60;;;37.80;36.10;;;;;;6164554;23;20029;-78
2022/05/28 16:20:45;;;;;;;2.58;0.65;;;38.00;36.50;;;;;;6139944;23;20172;-79
2022/05/28 16:23:12;;;;;;;2.95;0.63;;;37.60;35.90;;;;;;6166244;23;20002;-79
2022/05/28 17:15:53;;;;;;;2.33;0.70;;;33.40;37.30;;;;;;6185588;23;20029;-78
2022/05/28 17:18:38;;;;;;;2.63;0.52;;;33.00;37.10;;;;;;6225771;23;20001;-78
2022/05/28 17:21:06;;;;;;;2.25;0.85;;;33.70;37.20;;;;;;6226078;23;20064;-78
2022/05/28 17:23:35;;;;;;;2.72;0.60;;;33.50;37.10;;;;;;6226142;23;20008;-78
2022/05/28 17:26:10;;;;;;;3.67;0.50;;;33.40;37.40;;;;;;6225979;23;20004;-79
2022/05/28 17:28:36;;;;;;;3.58;0.52;;;33.00;38.00;;;;;;6225040;23;20286;-81
2022/05/28 17:31:01;;;;;;;3.35;0.60;;;33.20;37.90;;;;;;6222975;23;20005;-79
2022/05/28 17:33:27;;;;;;;2.38;0.60;;;33.10;38.10;;;;;;6198789;23;20001;-76
2022/05/28 17:35:54;;;;;;;3.67;0.80;;;33.10;38.10;;;;;;6197647;23;19993;-79
2022/05/28 17:38:22;;;;;;;3.33;0.60;;;33.00;38.20;;;;;;6224042;23;20005;-78
2022/05/28 17:40:48;;;;;;;3.10;0.70;;;31.40;39.10;;;;;;6172609;23;20016;-79
2022/05/28 17:43:14;;;;;;;3.20;0.80;;;31.00;39.60;;;;;;6224364;23;19989;-78
2022/05/28 17:49:11;;;;;;;4.20;0.80;;;28.00;41.70;;;;;;6223735;23;20011;-78
2022/05/28 17:51:37;;;;;;;3.47;0.87;;;26.60;44.00;;;;;;6197106;23;20043;-79
2022/05/28 17:54:04;;;;;;;3.47;0.70;;;26.10;44.60;;;;;;6197597;23;20705;-78
2022/05/28 17:57:11;;;;;;;2.85;0.75;;;26.10;44.60;;;;;;6172713;23;20008;-77
2022/05/28 17:59:37;;;;;;;3.08;0.60;;;27.20;43.80;;;;;;6222916;23;19997;-77
2022/05/28 18:02:13;;;;;;;3.35;0.70;;;28.10;43.00;;;;;;6223272;23;20250;-78
2022/05/28 18:04:38;;;;;;;4.20;0.80;;;28.00;42.70;;;;;;6223701;23;20005;-78
2022/05/28 18:07:04;;;;;;;3.78;0.75;;;27.20;43.40;;;;;;6223871;23;20055;-78
2022/05/28 18:09:30;;;;;;;2.75;0.57;;;26.10;44.30;;;;;;6223743;23;20282;-77
2022/05/28 18:11:56;;;;;;;2.22;0.70;;;25.00;45.80;;;;;;6197799;23;20115;-78
2022/05/28 18:14:22;;;;;;;2.08;0.70;;;23.90;48.10;;;;;;6223444;23;20056;-79
2022/05/28 18:16:48;;;;;;;2.05;0.60;;;22.90;48.40;;;;;;6223440;23;20071;-79
2022/05/28 18:19:31;;;;;;;2.70;0.65;;;22.00;50.00;;;;;;6224518;23;20020;-78
2022/05/28 18:21:57;;;;;;;2.78;0.80;;;21.20;51.40;;;;;;6224435;23;20010;-79
2022/05/28 18:24:45;;;;;;;3.25;0.95;;;20.80;52.30;;;;;;6224616;23;20004;-79
2022/05/28 18:31:20;;;;;;;3.85;0.60;;;20.00;53.50;;;;;;6223732;23;20299;-78
2022/05/28 20:11:13;;;;;;;4.20;1.10;;;16.60;64.10;;;;;;6166363;23;20009;-79
2022/05/28 20:13:39;;;;;;;3.65;0.90;;;16.50;63.90;;;;;;6142160;23;20028;-80
2022/05/28 20:16:05;;;;;;;6.07;1.67;;;16.40;64.00;;;;;;6193353;23;20315;-79
2022/05/28 20:18:31;;;;;;;3.30;1.25;;;16.40;64.80;;;;;;6167827;23;20016;-79
2022/05/28 20:20:57;;;;;;;17.17;9.38;;;16.50;65.20;;;;;;6155719;23;20017;-81
2022/05/28 20:23:32;;;;;;;8.45;3.70;;;16.40;65.40;;;;;;6193942;23;20008;-78
2022/05/28 20:29:48;;;;;;;5.00;2.08;;;16.20;65.90;;;;;;6199146;23;20049;-79
2022/05/28 20:32:14;;;;;;;5.78;1.88;;;16.10;66.40;;;;;;6196137;23;20365;-80
2022/05/28 20:34:45;;;;;;;6.60;1.60;;;16.00;66.50;;;;;;6193579;23;20005;-81
2022/05/28 20:37:21;;;;;;;5.35;1.83;;;15.90;66.90;;;;;;6193933;23;20048;-82
2022/05/28 20:39:51;;;;;;;4.15;1.50;;;15.90;67.00;;;;;;6192928;23;20064;-81
2022/05/28 20:42:36;;;;;;;4.43;1.90;;;16.00;66.60;;;;;;6194316;23;20036;-81
2022/05/28 20:45:32;;;;;;;3.60;1.27;;;16.00;66.70;;;;;;6142768;23;20028;-81
2022/05/28 20:52:10;;;;;;;4.10;1.55;;;16.10;66.90;;;;;;6193597;23;20001;-81
2022/05/28 20:54:36;;;;;;;4.80;1.75;;;16.10;67.10;;;;;;6166420;23;20191;-80
2022/05/28 20:57:03;;;;;;;6.28;1.67;;;16.00;67.00;;;;;;6167268;23;20012;-81
2022/05/28 20:59:30;;;;;;;4.97;1.67;;;16.00;67.30;;;;;;6193502;23;20061;-81
2022/05/28 21:01:56;;;;;;;5.32;1.90;;;15.90;67.60;;;;;;6165946;23;20028;-80
2022/05/28 21:04:33;;;;;;;5.03;1.70;;;15.90;67.60;;;;;;6194067;23;20011;-79
2022/05/28 21:07:00;;;;;;;6.20;2.15;;;15.80;68.40;;;;;;6194923;23;20203;-82
2022/05/28 21:09:26;;;;;;;4.90;1.98;;;15.70;68.50;;;;;;6169156;23;20190;-82
2022/05/28 21:11:52;;;;;;;4.30;1.70;;;15.60;68.90;;;;;;6143813;23;20005;-82
2022/05/28 21:14:18;;;;;;;6.82;1.70;;;15.60;68.70;;;;;;6168790;23;20012;-81
2022/05/28 21:16:54;;;;;;;4.97;1.70;;;15.50;69.00;;;;;;6167457;23;20005;-82
2022/05/28 21:19:27;;;;;;;4.28;1.33;;;15.60;68.40;;;;;;6144638;23;20168;-80
2022/05/28 21:21:53;;;;;;;4.78;1.77;;;15.60;68.00;;;;;;6143526;23;20019;-81
2022/05/28 21:24:19;;;;;;;4.15;1.63;;;15.70;68.00;;;;;;6168515;23;20001;-81
2022/05/28 21:30:04;;;;;;;3.15;1.52;;;15.70;68.70;;;;;;6168568;23;20016;-81
2022/05/28 21:33:03;;;;;;;4.35;1.50;;;15.60;68.70;;;;;;6167593;23;20028;-80
2022/05/28 21:35:34;;;;;;;5.82;2.33;;;15.50;69.10;;;;;;6144200;23;20001;-80
2022/05/28 21:38:38;;;;;;;4.35;1.85;;;15.40;69.30;;;;;;6143885;23;20001;-82
2022/05/28 21:41:10;;;;;;;5.43;1.95;;;15.50;69.80;;;;;;6142006;23;20032;-81
2022/05/28 21:44:00;;;;;;;4.95;1.92;;;15.40;70.30;;;;;;6193752;23;19997;-82
2022/05/28 21:46:30;;;;;;;5.28;2.25;;;15.40;70.50;;;;;;6167425;23;20069;-83
2022/05/28 21:49:03;;;;;;;4.57;2.00;;;15.30;70.80;;;;;;6167423;23;20020;-80
2022/05/28 21:51:29;;;;;;;6.45;2.60;;;15.30;71.50;;;;;;6168216;23;20011;-80
2022/05/28 21:57:25;;;;;;;5.45;2.05;;;15.30;72.50;;;;;;6168382;23;20069;-79
2022/05/28 21:59:50;;;;;;;4.43;2.00;;;15.10;72.70;;;;;;6167424;23;20009;-81
2022/05/28 22:02:19;;;;;;;6.00;2.15;;;14.90;73.20;;;;;;6129427;23;20013;-80
2022/05/28 22:04:45;;;;;;;;;;;14.80;73.10;;;;;;6168544;23;20025;-80
2022/05/28 22:07:37;;;;;;;3.92;1.70;;;14.80;73.20;;;;;;6157123;23;19911;-79
2022/05/28 22:10:06;;;;;;;6.20;2.35;;;14.80;72.70;;;;;;6224803;23;20011;-79
2022/05/28 22:12:35;;;;;;;;;;;14.80;73.40;;;;;;6199069;23;20004;-79
2022/05/28 22:15:01;;;;;;;3.88;2.00;;;14.70;73.30;;;;;;6224343;23;19900;-79
2022/05/28 22:17:30;;;;;;;4.57;2.15;;;14.80;73.10;;;;;;6197740;23;20107;-80
2022/05/28 22:20:03;;;;;;;5.00;2.28;;;14.90;73.50;;;;;;6172527;23;20260;-79
2022/05/28 22:22:29;;;;;;;5.05;2.17;;;14.90;73.70;;;;;;6198095;23;20328;-80
2022/05/28 22:24:55;;;;;;;5.55;2.45;;;14.90;73.00;;;;;;6172525;23;20008;-77
2022/05/28 22:27:21;;;;;;;4.60;2.28;;;14.90;73.80;;;;;;6223467;23;20007;-79
2022/05/28 22:29:47;;;;;;;7.00;2.67;;;14.90;74.10;;;;;;6222837;23;20147;-79
2022/05/28 22:35:42;;;;;;;5.97;2.30;;;14.70;74.20;;;;;;6222840;23;20068;-80
2022/05/28 22:38:51;;;;;;;5.45;1.95;;;14.60;74.70;;;;;;6196826;23;19996;-79
2022/05/28 22:45:12;;;;;;;7.47;2.30;;;14.40;75.30;;;;;;6222828;23;20038;-79
2022/05/28 22:48:04;;;;;;;4.82;2.30;;;14.30;76.10;;;;;;6223246;23;20000;-81
2022/05/28 22:50:34;;;;;;;5.75;2.30;;;14.20;76.30;;;;;;6171945;23;20304;-80
2022/05/28 22:53:00;;;;;;;5.07;2.53;;;14.10;76.90;;;;;;6222922;23;19996;-79
2022/05/28 22:55:27;;;;;;;6.30;3.13;;;14.10;77.30;;;;;;6224132;23;20004;-81
2022/05/28 22:57:54;;;;;;;6.47;2.75;;;14.10;77.70;;;;;;6225613;23;19996;-80
2022/05/28 23:00:22;;;;;;;6.53;3.13;;;14.00;77.70;;;;;;6203160;23;20012;-79
